createdAt,value
2018-09-21T00:01:38.922Z,8.13
2018-09-21T00:04:43.978Z,8.53
2018-09-21T00:07:49.019Z,8.83
2018-09-21T00:10:54.085Z,8.63
2018-09-21T00:14:00.144Z,9.60
2018-09-21T00:17:05.171Z,8.13
2018-09-21T00:20:10.915Z,7.50
2018-09-21T00:23:15.910Z,8.57
2018-09-21T00:26:20.927Z,8.33
2018-09-21T00:29:25.939Z,8.10
2018-09-21T00:32:30.905Z,8.27
2018-09-21T00:35:35.912Z,8.00
2018-09-21T00:38:40.915Z,8.63
2018-09-21T00:41:45.909Z,8.60
2018-09-21T00:44:51.036Z,8.80
2018-09-21T00:47:56.827Z,9.03
2018-09-21T00:51:02.789Z,9.13
2018-09-21T00:54:07.799Z,8.77
2018-09-21T00:57:12.819Z,9.47
2018-09-21T01:00:18.397Z,9.80
2018-09-21T01:03:24.062Z,8.33
2018-09-21T01:06:29.108Z,8.37
2018-09-21T01:09:35.258Z,8.97
2018-09-21T01:12:40.273Z,9.03
2018-09-21T01:15:45.359Z,8.03
2018-09-21T01:18:53.149Z,8.30
2018-09-21T01:21:58.189Z,7.43
2018-09-21T01:25:03.214Z,7.37
2018-09-21T01:28:08.235Z,7.17
2018-09-21T01:31:14.456Z,7.00
2018-09-21T01:34:19.494Z,6.50
2018-09-21T01:37:25.649Z,5.80
2018-09-21T01:40:31.367Z,5.63
2018-09-21T01:43:36.386Z,5.73
2018-09-21T01:46:42.997Z,6.10
2018-09-21T01:49:48.024Z,5.63
2018-09-21T01:52:53.084Z,4.97
2018-09-21T01:55:58.366Z,5.40
2018-09-21T01:59:03.398Z,5.47
2018-09-21T02:02:09.212Z,5.10
2018-09-21T02:05:14.225Z,5.33
2018-09-21T02:08:19.248Z,5.13
2018-09-21T02:11:24.286Z,5.20
2018-09-21T02:14:29.306Z,5.73
2018-09-21T02:17:34.324Z,5.60
2018-09-21T02:20:39.326Z,5.30
2018-09-21T02:23:44.318Z,5.67
2018-09-21T02:26:49.878Z,5.50
2018-09-21T02:29:54.875Z,5.63
2018-09-21T02:32:59.871Z,5.77
2018-09-21T02:36:05.498Z,5.30
2018-09-21T02:39:10.525Z,4.93
2018-09-21T02:42:15.587Z,5.67
2018-09-21T02:45:20.620Z,5.10
2018-09-21T02:48:25.663Z,5.17
2018-09-21T02:51:31.098Z,5.77
2018-09-21T02:54:37.132Z,5.20
2018-09-21T02:57:42.232Z,5.10
2018-09-21T03:00:47.379Z,5.23
2018-09-21T03:03:52.286Z,5.20
2018-09-21T03:06:57.324Z,5.10
2018-09-21T03:10:02.359Z,5.47
2018-09-21T03:13:08.449Z,5.20
2018-09-21T03:16:13.492Z,5.40
2018-09-21T03:19:19.674Z,5.13
2018-09-21T03:22:25.729Z,5.63
2018-09-21T03:25:30.820Z,5.60
2018-09-21T03:28:36.712Z,5.20
2018-09-21T03:31:41.831Z,5.13
2018-09-21T03:34:46.868Z,4.80
2018-09-21T03:37:53.070Z,5.10
2018-09-21T03:40:59.215Z,5.13
2018-09-21T03:44:04.194Z,4.80
2018-09-21T03:47:09.183Z,5.30
2018-09-21T03:50:14.159Z,4.90
2018-09-21T03:53:19.166Z,5.30
2018-09-21T03:56:24.218Z,5.37
2018-09-21T03:59:29.215Z,5.00
2018-09-21T04:02:35.519Z,5.50
2018-09-21T04:05:40.514Z,6.20
2018-09-21T04:08:45.505Z,4.77
2018-09-21T04:11:50.517Z,5.20
2018-09-21T04:14:55.568Z,4.60
2018-09-21T04:18:00.562Z,5.10
2018-09-21T04:21:05.766Z,6.37
2018-09-21T04:24:11.495Z,4.97
2018-09-21T04:27:16.583Z,4.93
2018-09-21T04:30:22.930Z,4.80
2018-09-21T04:33:27.997Z,5.17
2018-09-21T04:36:33.026Z,5.10
2018-09-21T04:39:38.216Z,4.93
2018-09-21T04:42:43.268Z,4.90
2018-09-21T04:45:48.543Z,4.50
2018-09-21T04:48:53.547Z,5.13
2018-09-21T04:51:58.841Z,4.93
2018-09-21T04:55:04.090Z,5.27
2018-09-21T04:58:09.196Z,5.03
2018-09-21T05:01:14.296Z,4.70
2018-09-21T05:04:19.362Z,4.67
2018-09-21T05:07:25.198Z,4.80
2018-09-21T05:10:30.618Z,5.10
2018-09-21T05:14:56.746Z,5.30
2018-09-21T05:18:02.949Z,5.70
2018-09-21T05:21:08.778Z,4.80
2018-09-21T05:24:13.737Z,4.93
2018-09-21T05:27:19.678Z,5.20
2018-09-21T05:30:24.702Z,5.30
2018-09-21T05:33:29.767Z,4.97
2018-09-21T05:36:34.760Z,5.93
2018-09-21T05:39:39.785Z,5.20
2018-09-21T05:42:44.823Z,4.80
2018-09-21T05:45:50.263Z,5.17
2018-09-21T05:48:55.444Z,5.47
2018-09-21T05:52:00.481Z,4.87
2018-09-21T05:55:05.759Z,5.57
2018-09-21T05:58:10.816Z,4.97
2018-09-21T06:01:15.801Z,5.13
2018-09-21T06:04:20.768Z,5.50
2018-09-21T06:07:25.746Z,5.13
2018-09-21T06:10:30.711Z,5.90
2018-09-21T06:13:35.702Z,4.23
2018-09-21T06:16:40.672Z,5.07
2018-09-21T06:19:45.645Z,4.83
2018-09-21T06:22:50.634Z,5.00
2018-09-21T06:25:55.664Z,5.20
2018-09-21T06:29:00.694Z,5.13
2018-09-21T06:32:05.676Z,4.73
2018-09-21T06:35:10.670Z,4.60
2018-09-21T06:38:15.654Z,4.93
2018-09-21T06:41:20.665Z,4.70
2018-09-21T06:44:25.661Z,4.97
2018-09-21T06:47:30.670Z,5.30
2018-09-21T06:50:35.774Z,4.70
2018-09-21T06:53:40.894Z,5.97
2018-09-21T06:56:46.016Z,5.43
2018-09-21T06:59:51.030Z,5.20
2018-09-21T07:02:56.174Z,4.73
2018-09-21T07:06:01.320Z,4.63
2018-09-21T07:09:10.427Z,5.60
2018-09-21T07:12:15.430Z,5.37
2018-09-21T07:15:20.422Z,5.00
2018-09-21T07:18:25.400Z,5.70
2018-09-21T07:21:30.505Z,4.40
2018-09-21T07:24:35.442Z,5.77
2018-09-21T07:27:40.403Z,5.50
2018-09-21T07:30:45.348Z,5.60
2018-09-21T07:33:50.330Z,5.57
2018-09-21T07:36:55.283Z,6.07
2018-09-21T07:40:00.267Z,4.90
2018-09-21T07:43:05.272Z,5.50
2018-09-21T07:46:10.182Z,5.60
2018-09-21T07:49:15.252Z,5.90
2018-09-21T07:52:20.205Z,6.20
2018-09-21T07:55:25.155Z,5.72
2018-09-21T07:58:30.135Z,5.83
2018-09-21T08:01:35.081Z,6.10
2018-09-21T08:04:40.039Z,5.50
2018-09-21T08:07:45.022Z,5.47
2018-09-21T08:10:50.001Z,5.73
2018-09-21T08:13:55.012Z,5.53
2018-09-21T08:16:59.999Z,5.80
2018-09-21T08:20:05.010Z,6.07
2018-09-21T08:23:10.013Z,6.20
2018-09-21T08:26:15.079Z,6.62
2018-09-21T08:29:20.089Z,5.63
2018-09-21T08:32:25.114Z,6.10
2018-09-21T08:35:30.144Z,6.00
2018-09-21T08:38:36.203Z,5.80
2018-09-21T08:41:41.444Z,6.00
2018-09-21T08:44:48.369Z,5.53
2018-09-21T08:47:53.498Z,5.57
2018-09-21T08:50:58.553Z,6.30
2018-09-21T08:54:03.693Z,5.67
2018-09-21T08:57:08.698Z,5.87
2018-09-21T09:00:13.725Z,5.87
2018-09-21T09:03:18.744Z,5.57
2018-09-21T09:06:23.721Z,5.87
2018-09-21T09:09:28.757Z,5.43
2018-09-21T09:12:33.765Z,5.67
2018-09-21T09:15:38.818Z,5.37
2018-09-21T09:18:43.893Z,6.00
2018-09-21T09:21:48.899Z,5.17
2018-09-21T09:24:53.995Z,5.37
2018-09-21T09:27:59.054Z,5.30
2018-09-21T09:31:04.135Z,4.80
2018-09-21T09:34:09.197Z,4.37
2018-09-21T09:37:15.878Z,4.80
2018-09-21T09:40:20.999Z,4.43
2018-09-21T09:43:27.195Z,4.30
2018-09-21T09:46:32.251Z,4.40
2018-09-21T09:49:37.314Z,4.37
2018-09-21T09:52:43.537Z,4.13
2018-09-21T09:55:50.430Z,4.53
2018-09-21T09:58:56.362Z,4.57
2018-09-21T10:02:01.586Z,3.33
2018-09-21T10:05:06.647Z,7.97
2018-09-21T10:08:12.826Z,6.63
2018-09-21T10:11:20.142Z,4.17
2018-09-21T10:14:25.161Z,4.10
2018-09-21T10:17:30.927Z,5.27
2018-09-21T10:20:36.756Z,3.53
2018-09-21T10:23:41.728Z,3.40
2018-09-21T10:26:47.613Z,3.00
2018-09-21T10:29:52.592Z,2.67
2018-09-21T10:32:57.678Z,2.80
2018-09-21T10:36:02.735Z,2.73
2018-09-21T10:39:08.048Z,3.57
2018-09-21T10:42:12.988Z,2.87
2018-09-21T10:45:17.938Z,2.60
2018-09-21T10:48:22.900Z,2.93
2018-09-21T10:51:27.889Z,2.33
2018-09-21T10:54:32.883Z,5.03
2018-09-21T10:57:37.862Z,2.47
2018-09-21T11:00:43.057Z,2.10
2018-09-21T11:03:48.210Z,2.43
2018-09-21T11:06:53.319Z,2.20
2018-09-21T11:09:58.607Z,2.40
2018-09-21T11:13:03.976Z,2.10
2018-09-21T11:16:09.075Z,1.90
2018-09-21T11:19:14.153Z,2.40
2018-09-21T11:22:19.469Z,2.30
2018-09-21T11:25:24.585Z,2.50
2018-09-21T11:28:29.570Z,2.87
2018-09-21T11:31:34.585Z,2.67
2018-09-21T11:34:39.600Z,2.67
2018-09-21T11:37:44.631Z,2.50
2018-09-21T11:40:49.651Z,2.40
2018-09-21T11:43:54.762Z,2.30
2018-09-21T11:47:00.800Z,2.23
2018-09-21T11:50:05.832Z,2.23
2018-09-21T11:53:12.006Z,2.10
2018-09-21T11:56:17.009Z,2.43
2018-09-21T11:59:22.017Z,1.77
2018-09-21T12:02:27.047Z,1.90
2018-09-21T12:05:32.033Z,2.20
2018-09-21T12:08:37.854Z,2.10
2018-09-21T12:14:50.041Z,2.70
2018-09-21T12:17:55.043Z,2.10
2018-09-21T12:21:00.034Z,2.10
2018-09-21T12:24:05.058Z,2.10
2018-09-21T12:27:10.115Z,2.17
2018-09-21T12:30:15.104Z,2.07
2018-09-21T12:33:20.084Z,2.10
2018-09-21T12:36:25.163Z,2.30
2018-09-21T12:39:30.240Z,2.10
2018-09-21T12:42:35.436Z,1.93
2018-09-21T12:45:40.454Z,2.60
2018-09-21T12:48:45.484Z,2.47
2018-09-21T12:51:50.983Z,1.90
2018-09-21T12:54:56.094Z,1.97
2018-09-21T12:58:01.361Z,1.80
2018-09-21T13:01:06.667Z,2.10
2018-09-21T13:04:11.803Z,2.37
2018-09-21T13:07:17.257Z,2.70
2018-09-21T13:10:22.407Z,1.23
2018-09-21T13:13:27.382Z,1.00
2018-09-21T13:16:32.356Z,0.90
2018-09-21T13:28:44.048Z,0.97
2018-09-21T13:31:49.015Z,14.17
2018-09-21T13:34:54.014Z,1.70
2018-09-21T13:38:00.000Z,0.40
2018-09-21T13:41:05.021Z,1.33
2018-09-21T13:44:10.016Z,0.63
2018-09-21T13:47:14.983Z,1.17
2018-09-21T13:50:20.196Z,1.10
2018-09-21T13:53:25.184Z,0.60
2018-09-21T13:56:30.272Z,1.10
2018-09-21T13:59:35.310Z,1.00
2018-09-21T14:02:41.263Z,1.43
2018-09-21T14:05:46.313Z,1.20
2018-09-21T14:08:51.338Z,2.40
2018-09-21T14:11:56.294Z,2.03
2018-09-21T14:15:01.327Z,1.10
2018-09-21T14:18:06.357Z,1.70
2018-09-21T14:21:11.534Z,1.53
2018-09-21T14:24:16.825Z,9.30
2018-09-21T14:27:22.087Z,1.10
2018-09-21T14:30:27.240Z,1.43
2018-09-21T14:33:32.383Z,1.30
2018-09-21T14:36:37.646Z,1.57
2018-09-21T14:39:42.950Z,1.27
2018-09-21T14:42:48.078Z,1.80
2018-09-21T14:45:53.224Z,1.60
2018-09-21T14:48:58.474Z,2.20
2018-09-21T14:52:03.652Z,1.20
2018-09-21T14:55:09.212Z,1.47
2018-09-21T14:58:14.384Z,2.00
2018-09-21T15:01:19.802Z,1.60
2018-09-21T15:04:24.923Z,1.30
2018-09-21T15:07:30.360Z,1.70
2018-09-21T15:10:35.346Z,1.30
2018-09-21T15:13:40.303Z,1.77
2018-09-21T15:16:45.471Z,1.47
2018-09-21T15:19:50.500Z,1.53
2018-09-21T15:22:55.457Z,1.83
2018-09-21T15:26:00.444Z,1.83
2018-09-21T15:29:05.694Z,1.63
2018-09-21T15:32:12.118Z,1.90
2018-09-21T15:35:17.285Z,1.50
2018-09-21T15:38:22.455Z,1.70
2018-09-21T15:41:27.453Z,2.13
2018-09-21T15:44:32.448Z,1.63
2018-09-21T15:47:37.415Z,1.80
2018-09-21T15:50:42.386Z,2.03
2018-09-21T15:53:47.344Z,2.00
2018-09-21T15:56:52.297Z,1.67
2018-09-21T15:59:57.391Z,1.73
2018-09-21T16:03:02.442Z,2.47
2018-09-21T16:06:07.492Z,1.90
2018-09-21T16:09:12.427Z,3.20
2018-09-21T16:12:17.397Z,3.37
2018-09-21T16:15:22.374Z,7.77
2018-09-21T16:18:27.339Z,2.10
2018-09-21T16:21:32.344Z,2.23
2018-09-21T16:24:37.739Z,1.70
2018-09-21T16:27:43.037Z,1.60
2018-09-21T16:30:48.320Z,1.50
2018-09-21T16:33:53.653Z,2.13
2018-09-21T16:36:58.907Z,1.60
2018-09-21T16:40:04.186Z,1.37
2018-09-21T16:43:09.734Z,1.60
2018-09-21T16:46:14.962Z,1.73
2018-09-21T16:49:20.461Z,1.60
2018-09-21T16:52:25.691Z,1.40
2018-09-21T16:55:30.877Z,1.70
2018-09-21T16:58:36.157Z,1.87
2018-09-21T17:01:41.507Z,1.77
2018-09-21T17:04:46.975Z,2.20
2018-09-21T17:07:52.163Z,1.60
2018-09-21T17:10:57.322Z,1.63
2018-09-21T17:14:02.725Z,1.50
2018-09-21T17:17:07.947Z,1.67
2018-09-21T17:20:13.198Z,1.50
2018-09-21T17:23:18.418Z,1.90
2018-09-21T17:26:23.498Z,1.97
2018-09-21T17:29:28.681Z,1.83
2018-09-21T17:32:33.760Z,1.80
2018-09-21T17:35:39.105Z,1.63
2018-09-21T17:38:44.146Z,2.80
2018-09-21T17:41:49.148Z,2.13
2018-09-21T17:44:54.228Z,1.30
2018-09-21T17:47:59.261Z,1.40
2018-09-21T17:51:04.309Z,1.43
2018-09-21T17:54:09.277Z,1.60
2018-09-21T17:57:14.400Z,1.63
2018-09-21T18:00:19.434Z,1.50
2018-09-21T18:03:24.438Z,1.50
2018-09-21T18:06:29.458Z,1.50
2018-09-21T18:09:34.519Z,1.57
2018-09-21T18:12:41.834Z,1.60
2018-09-21T18:15:46.987Z,1.50
2018-09-21T18:18:51.979Z,1.67
2018-09-21T18:21:56.977Z,1.10
2018-09-21T18:25:01.981Z,1.50
2018-09-21T18:28:07.195Z,1.20
2018-09-21T18:31:12.254Z,1.20
2018-09-21T18:34:17.288Z,1.30
2018-09-21T18:37:22.368Z,1.20
2018-09-21T18:40:27.410Z,1.47
2018-09-21T18:43:32.545Z,1.50
2018-09-21T18:46:37.578Z,1.70
2018-09-21T18:49:42.541Z,1.37
2018-09-21T18:52:48.077Z,1.13
2018-09-21T18:55:53.124Z,1.20
2018-09-21T18:58:58.336Z,1.13
2018-09-21T19:02:03.351Z,0.90
2018-09-21T19:05:08.827Z,1.23
2018-09-21T19:08:13.839Z,0.80
2018-09-21T19:11:18.823Z,0.80
2018-09-21T19:14:23.846Z,1.10
2018-09-21T19:17:28.882Z,0.90
2018-09-21T19:20:33.934Z,0.90
2018-09-21T19:23:39.017Z,1.00
2018-09-21T19:26:44.351Z,0.80
2018-09-21T19:29:49.351Z,1.50
2018-09-21T19:32:54.430Z,1.13
2018-09-21T19:35:59.441Z,1.00
2018-09-21T19:39:07.853Z,1.20
2018-09-21T19:42:14.074Z,14.13
2018-09-21T19:45:19.264Z,2.03
2018-09-21T19:48:24.251Z,1.50
2018-09-21T19:51:29.158Z,0.70
2018-09-21T19:54:35.167Z,1.07
2018-09-21T19:57:40.238Z,1.40
2018-09-21T20:00:45.274Z,4.47
2018-09-21T20:03:51.290Z,0.93
2018-09-21T20:06:56.299Z,1.20
2018-09-21T20:10:01.489Z,0.90
2018-09-21T20:13:06.673Z,0.80
2018-09-21T20:16:11.698Z,1.07
2018-09-21T20:19:16.735Z,1.20
2018-09-21T20:22:21.846Z,1.07
2018-09-21T20:25:26.926Z,1.00
2018-09-21T20:28:31.947Z,0.73
2018-09-21T20:31:42.762Z,1.00
2018-09-21T20:34:47.762Z,1.07
2018-09-21T20:37:52.746Z,0.93
2018-09-21T20:40:58.029Z,0.83
2018-09-21T20:44:03.033Z,1.03
2018-09-21T20:47:08.297Z,0.90
2018-09-21T20:50:13.391Z,0.80
2018-09-21T20:53:18.565Z,1.00
2018-09-21T20:56:23.589Z,1.13
2018-09-21T20:59:28.622Z,0.87
2018-09-21T21:02:33.628Z,1.13
2018-09-21T21:05:38.598Z,1.00
2018-09-21T21:08:43.574Z,1.13
2018-09-21T21:14:59.591Z,1.10
2018-09-21T21:18:04.909Z,0.90
2018-09-21T21:21:09.875Z,1.00
2018-09-21T21:24:15.106Z,3.03
2018-09-21T21:27:20.117Z,2.17
2018-09-21T21:30:25.353Z,2.50
2018-09-21T21:33:30.337Z,1.30
2018-09-21T21:36:35.330Z,1.33
2018-09-21T21:39:40.337Z,0.90
2018-09-21T21:42:45.327Z,1.10
2018-09-21T21:45:50.280Z,1.17
2018-09-21T21:48:55.243Z,1.30
2018-09-21T21:52:00.235Z,3.30
2018-09-21T21:55:05.264Z,1.03
2018-09-21T21:58:10.237Z,1.20
2018-09-21T22:04:18.670Z,1.05
2018-09-21T22:07:23.678Z,1.03
2018-09-21T22:10:28.633Z,0.83
2018-09-21T22:13:39.389Z,1.17
2018-09-21T22:16:44.353Z,1.57
2018-09-21T22:19:49.325Z,1.43
2018-09-21T22:22:54.288Z,1.47
2018-09-21T22:25:59.231Z,1.37
2018-09-21T22:29:04.280Z,1.27
2018-09-21T22:32:09.254Z,1.00
2018-09-21T22:35:14.238Z,1.23
2018-09-21T22:38:19.219Z,0.90
2018-09-21T22:41:24.197Z,1.00
2018-09-21T22:44:29.183Z,1.60
2018-09-21T22:47:34.182Z,1.10
2018-09-21T22:50:39.127Z,1.53
2018-09-21T22:53:44.288Z,1.10
2018-09-21T22:56:49.270Z,1.00
2018-09-21T22:59:54.225Z,1.17
2018-09-21T23:02:59.225Z,1.20
2018-09-21T23:06:04.246Z,1.00
2018-09-21T23:09:11.135Z,0.97
2018-09-21T23:12:16.129Z,0.90
2018-09-21T23:15:21.122Z,1.30
2018-09-21T23:18:26.104Z,1.00
2018-09-21T23:21:31.088Z,1.07
2018-09-21T23:24:36.079Z,1.00
2018-09-21T23:27:41.050Z,1.13
2018-09-21T23:30:46.051Z,1.10
2018-09-21T23:33:51.109Z,1.30
2018-09-21T23:36:56.093Z,1.03
2018-09-21T23:40:01.193Z,1.10
2018-09-21T23:43:06.174Z,1.43
2018-09-21T23:46:11.131Z,1.00
2018-09-21T23:49:16.113Z,1.50
2018-09-21T23:52:21.178Z,1.40
2018-09-21T23:55:26.151Z,0.97
2018-09-21T23:58:31.126Z,1.10
